sensor_id;sensor_type;location;lat;lon;timestamp;temperature;humidity
36548;DHT22;22551;52.206;4.856;2023-09-19T00:04:14;14.30;99.90
36548;DHT22;22551;52.206;4.856;2023-09-19T00:09:16;14.20;99.90
36548;DHT22;22551;52.206;4.856;2023-09-19T00:14:20;14.20;99.90
36548;DHT22;22551;52.206;4.856;2023-09-19T00:19:25;14.20;99.90
36548;DHT22;22551;52.206;4.856;2023-09-19T00:24:27;14.20;99.90
36548;DHT22;22551;52.206;4.856;2023-09-19T00:29:30;14.20;99.90
36548;DHT22;22551;52.206;4.856;2023-09-19T00:34:33;14.20;99.90
36548;DHT22;22551;52.206;4.856;2023-09-19T00:39:36;14.10;99.90
36548;DHT22;22551;52.206;4.856;2023-09-19T00:44:40;14.00;99.90
36548;DHT22;22551;52.206;4.856;2023-09-19T00:49:42;13.90;99.90
36548;DHT22;22551;52.206;4.856;2023-09-19T00:54:45;13.80;99.90
36548;DHT22;22551;52.206;4.856;2023-09-19T00:59:50;13.90;99.90
36548;DHT22;22551;52.206;4.856;2023-09-19T01:04:56;13.90;99.90
36548;DHT22;22551;52.206;4.856;2023-09-19T01:09:58;13.90;99.90
36548;DHT22;22551;52.206;4.856;2023-09-19T01:15:08;13.90;99.90
36548;DHT22;22551;52.206;4.856;2023-09-19T01:20:22;14.00;99.90
36548;DHT22;22551;52.206;4.856;2023-09-19T01:25:58;14.00;99.90
36548;DHT22;22551;52.206;4.856;2023-09-19T01:31:11;14.00;99.90
36548;DHT22;22551;52.206;4.856;2023-09-19T01:36:14;13.90;99.90
36548;DHT22;22551;52.206;4.856;2023-09-19T01:41:24;13.80;99.90
36548;DHT22;22551;52.206;4.856;2023-09-19T01:46:33;13.90;99.90
36548;DHT22;22551;52.206;4.856;2023-09-19T01:51:45;13.80;99.90
36548;DHT22;22551;52.206;4.856;2023-09-19T01:56:52;13.90;99.90
36548;DHT22;22551;52.206;4.856;2023-09-19T02:02:02;13.90;99.90
36548;DHT22;22551;52.206;4.856;2023-09-19T02:07:06;14.00;99.90
36548;DHT22;22551;52.206;4.856;2023-09-19T02:12:09;14.00;99.90
36548;DHT22;22551;52.206;4.856;2023-09-19T02:17:13;14.00;99.90
36548;DHT22;22551;52.206;4.856;2023-09-19T02:22:15;14.00;99.90
36548;DHT22;22551;52.206;4.856;2023-09-19T02:27:17;14.00;99.90
36548;DHT22;22551;52.206;4.856;2023-09-19T02:32:21;14.10;99.90
36548;DHT22;22551;52.206;4.856;2023-09-19T02:37:23;14.10;99.90
36548;DHT22;22551;52.206;4.856;2023-09-19T02:42:25;14.10;99.90
36548;DHT22;22551;52.206;4.856;2023-09-19T02:47:29;14.10;99.90
36548;DHT22;22551;52.206;4.856;2023-09-19T02:52:31;14.10;99.90
36548;DHT22;22551;52.206;4.856;2023-09-19T02:57:34;14.00;99.90
36548;DHT22;22551;52.206;4.856;2023-09-19T03:02:38;14.10;99.90
36548;DHT22;22551;52.206;4.856;2023-09-19T03:07:42;14.10;99.90
36548;DHT22;22551;52.206;4.856;2023-09-19T03:12:47;14.10;99.90
36548;DHT22;22551;52.206;4.856;2023-09-19T03:17:51;14.10;99.90
36548;DHT22;22551;52.206;4.856;2023-09-19T03:22:54;14.20;99.90
36548;DHT22;22551;52.206;4.856;2023-09-19T03:27:57;14.20;99.90
36548;DHT22;22551;52.206;4.856;2023-09-19T03:33:01;14.20;99.90
36548;DHT22;22551;52.206;4.856;2023-09-19T03:38:05;14.40;99.90
36548;DHT22;22551;52.206;4.856;2023-09-19T03:43:07;14.40;99.90
36548;DHT22;22551;52.206;4.856;2023-09-19T03:48:10;14.30;99.90
36548;DHT22;22551;52.206;4.856;2023-09-19T03:53:12;14.40;99.90
36548;DHT22;22551;52.206;4.856;2023-09-19T03:58:15;14.30;99.90
36548;DHT22;22551;52.206;4.856;2023-09-19T04:03:18;14.30;99.90
36548;DHT22;22551;52.206;4.856;2023-09-19T04:08:21;14.20;99.90
36548;DHT22;22551;52.206;4.856;2023-09-19T04:13:23;14.20;99.90
36548;DHT22;22551;52.206;4.856;2023-09-19T04:18:27;14.10;99.90
36548;DHT22;22551;52.206;4.856;2023-09-19T04:23:31;14.10;99.90
36548;DHT22;22551;52.206;4.856;2023-09-19T04:28:34;14.10;99.90
36548;DHT22;22551;52.206;4.856;2023-09-19T04:33:40;14.20;99.90
36548;DHT22;22551;52.206;4.856;2023-09-19T04:38:44;14.20;99.90
36548;DHT22;22551;52.206;4.856;2023-09-19T04:43:46;14.20;99.90
36548;DHT22;22551;52.206;4.856;2023-09-19T04:48:51;14.20;99.90
36548;DHT22;22551;52.206;4.856;2023-09-19T04:53:54;14.10;99.90
36548;DHT22;22551;52.206;4.856;2023-09-19T04:58:58;14.00;99.90
36548;DHT22;22551;52.206;4.856;2023-09-19T05:04:02;13.90;99.90
36548;DHT22;22551;52.206;4.856;2023-09-19T05:09:05;14.00;99.90
36548;DHT22;22551;52.206;4.856;2023-09-19T05:14:09;13.90;99.90
36548;DHT22;22551;52.206;4.856;2023-09-19T05:19:14;13.80;99.90
36548;DHT22;22551;52.206;4.856;2023-09-19T05:24:16;13.80;99.90
36548;DHT22;22551;52.206;4.856;2023-09-19T05:29:18;13.80;99.90
36548;DHT22;22551;52.206;4.856;2023-09-19T05:34:22;13.70;99.90
36548;DHT22;22551;52.206;4.856;2023-09-19T05:39:30;13.80;99.90
36548;DHT22;22551;52.206;4.856;2023-09-19T05:44:33;13.80;99.90
36548;DHT22;22551;52.206;4.856;2023-09-19T05:49:36;13.80;99.90
36548;DHT22;22551;52.206;4.856;2023-09-19T05:54:39;13.90;99.90
36548;DHT22;22551;52.206;4.856;2023-09-19T05:59:43;13.90;99.90
36548;DHT22;22551;52.206;4.856;2023-09-19T06:04:47;13.90;99.90
36548;DHT22;22551;52.206;4.856;2023-09-19T06:09:49;14.00;99.90
36548;DHT22;22551;52.206;4.856;2023-09-19T06:14:51;14.00;99.90
36548;DHT22;22551;52.206;4.856;2023-09-19T06:19:56;14.10;99.90
36548;DHT22;22551;52.206;4.856;2023-09-19T06:24:58;14.20;99.90
36548;DHT22;22551;52.206;4.856;2023-09-19T06:30:00;14.30;99.90
36548;DHT22;22551;52.206;4.856;2023-09-19T06:35:04;14.40;99.90
36548;DHT22;22551;52.206;4.856;2023-09-19T06:40:10;14.50;99.90
36548;DHT22;22551;52.206;4.856;2023-09-19T06:45:14;14.50;99.90
36548;DHT22;22551;52.206;4.856;2023-09-19T06:50:22;14.60;99.90
36548;DHT22;22551;52.206;4.856;2023-09-19T06:55:25;14.70;99.90
36548;DHT22;22551;52.206;4.856;2023-09-19T07:00:28;14.80;99.90
36548;DHT22;22551;52.206;4.856;2023-09-19T07:06:11;14.80;99.90
36548;DHT22;22551;52.206;4.856;2023-09-19T07:11:13;14.90;99.90
36548;DHT22;22551;52.206;4.856;2023-09-19T07:16:16;15.00;99.90
36548;DHT22;22551;52.206;4.856;2023-09-19T07:21:29;15.10;99.90
36548;DHT22;22551;52.206;4.856;2023-09-19T07:26:33;15.10;99.90
36548;DHT22;22551;52.206;4.856;2023-09-19T07:31:36;15.20;99.90
36548;DHT22;22551;52.206;4.856;2023-09-19T07:36:39;15.40;99.90
36548;DHT22;22551;52.206;4.856;2023-09-19T07:41:43;15.50;99.90
36548;DHT22;22551;52.206;4.856;2023-09-19T07:46:45;15.60;99.90
36548;DHT22;22551;52.206;4.856;2023-09-19T07:51:48;15.60;99.90
36548;DHT22;22551;52.206;4.856;2023-09-19T07:56:51;15.80;99.90
36548;DHT22;22551;52.206;4.856;2023-09-19T08:01:54;15.90;99.90
36548;DHT22;22551;52.206;4.856;2023-09-19T08:06:57;16.10;99.90
36548;DHT22;22551;52.206;4.856;2023-09-19T08:12:00;16.10;99.90
36548;DHT22;22551;52.206;4.856;2023-09-19T08:17:05;16.20;99.90
36548;DHT22;22551;52.206;4.856;2023-09-19T08:22:10;16.40;99.90
36548;DHT22;22551;52.206;4.856;2023-09-19T08:27:12;16.50;99.90
36548;DHT22;22551;52.206;4.856;2023-09-19T08:32:14;16.50;99.90
36548;DHT22;22551;52.206;4.856;2023-09-19T08:37:18;16.50;99.90
36548;DHT22;22551;52.206;4.856;2023-09-19T08:42:20;16.70;99.90
36548;DHT22;22551;52.206;4.856;2023-09-19T08:47:33;16.80;99.90
36548;DHT22;22551;52.206;4.856;2023-09-19T08:52:41;17.10;99.90
36548;DHT22;22551;52.206;4.856;2023-09-19T08:57:45;17.20;99.90
36548;DHT22;22551;52.206;4.856;2023-09-19T09:02:50;17.40;99.90
36548;DHT22;22551;52.206;4.856;2023-09-19T09:07:57;17.40;99.90
36548;DHT22;22551;52.206;4.856;2023-09-19T09:13:00;17.30;99.90
36548;DHT22;22551;52.206;4.856;2023-09-19T09:18:05;17.40;99.90
36548;DHT22;22551;52.206;4.856;2023-09-19T09:23:08;17.30;99.90
36548;DHT22;22551;52.206;4.856;2023-09-19T09:28:11;17.10;99.90
36548;DHT22;22551;52.206;4.856;2023-09-19T09:33:14;17.20;99.90
36548;DHT22;22551;52.206;4.856;2023-09-19T09:38:18;17.60;99.90
36548;DHT22;22551;52.206;4.856;2023-09-19T09:43:30;18.10;99.90
36548;DHT22;22551;52.206;4.856;2023-09-19T09:48:36;18.00;99.90
36548;DHT22;22551;52.206;4.856;2023-09-19T09:53:41;17.80;99.90
36548;DHT22;22551;52.206;4.856;2023-09-19T09:58:50;17.90;99.90
36548;DHT22;22551;52.206;4.856;2023-09-19T10:03:57;18.10;99.90
36548;DHT22;22551;52.206;4.856;2023-09-19T10:09:03;18.30;99.90
36548;DHT22;22551;52.206;4.856;2023-09-19T10:14:12;18.50;99.90
36548;DHT22;22551;52.206;4.856;2023-09-19T10:19:23;18.70;99.90
36548;DHT22;22551;52.206;4.856;2023-09-19T10:24:33;18.90;99.90
36548;DHT22;22551;52.206;4.856;2023-09-19T10:29:39;18.80;99.90
36548;DHT22;22551;52.206;4.856;2023-09-19T10:34:43;19.10;99.90
36548;DHT22;22551;52.206;4.856;2023-09-19T10:39:48;19.10;99.90
36548;DHT22;22551;52.206;4.856;2023-09-19T10:44:52;19.70;99.90
36548;DHT22;22551;52.206;4.856;2023-09-19T10:49:55;19.60;99.90
36548;DHT22;22551;52.206;4.856;2023-09-19T10:55:00;19.60;99.90
36548;DHT22;22551;52.206;4.856;2023-09-19T11:00:03;19.60;99.90
36548;DHT22;22551;52.206;4.856;2023-09-19T11:05:24;19.40;99.90
36548;DHT22;22551;52.206;4.856;2023-09-19T11:10:46;19.30;99.90
36548;DHT22;22551;52.206;4.856;2023-09-19T11:16:17;19.20;99.90
36548;DHT22;22551;52.206;4.856;2023-09-19T11:27:16;19.50;99.90
36548;DHT22;22551;52.206;4.856;2023-09-19T11:38:58;19.30;99.90
36548;DHT22;22551;52.206;4.856;2023-09-19T11:44:35;19.60;99.90
36548;DHT22;22551;52.206;4.856;2023-09-19T11:49:40;19.30;99.90
36548;DHT22;22551;52.206;4.856;2023-09-19T11:54:43;19.00;99.90
36548;DHT22;22551;52.206;4.856;2023-09-19T11:59:49;18.80;99.90
36548;DHT22;22551;52.206;4.856;2023-09-19T12:04:54;18.80;99.90
36548;DHT22;22551;52.206;4.856;2023-09-19T12:10:03;18.60;99.90
36548;DHT22;22551;52.206;4.856;2023-09-19T12:15:09;18.50;99.90
36548;DHT22;22551;52.206;4.856;2023-09-19T12:20:12;18.50;99.90
36548;DHT22;22551;52.206;4.856;2023-09-19T12:25:15;18.50;99.90
36548;DHT22;22551;52.206;4.856;2023-09-19T12:30:21;18.70;99.90
36548;DHT22;22551;52.206;4.856;2023-09-19T12:35:30;19.10;99.90
36548;DHT22;22551;52.206;4.856;2023-09-19T12:40:36;19.30;99.90
36548;DHT22;22551;52.206;4.856;2023-09-19T12:45:42;19.20;99.90
36548;DHT22;22551;52.206;4.856;2023-09-19T12:51:03;19.10;99.90
36548;DHT22;22551;52.206;4.856;2023-09-19T12:56:08;19.00;99.90
36548;DHT22;22551;52.206;4.856;2023-09-19T13:01:15;18.90;99.90
36548;DHT22;22551;52.206;4.856;2023-09-19T13:06:35;19.10;99.90
36548;DHT22;22551;52.206;4.856;2023-09-19T13:11:41;19.20;99.90
36548;DHT22;22551;52.206;4.856;2023-09-19T13:16:57;19.20;99.90
36548;DHT22;22551;52.206;4.856;2023-09-19T13:22:37;19.10;99.90
36548;DHT22;22551;52.206;4.856;2023-09-19T13:27:41;19.00;99.90
36548;DHT22;22551;52.206;4.856;2023-09-19T13:32:46;18.90;99.90
36548;DHT22;22551;52.206;4.856;2023-09-19T13:37:48;18.70;99.90
36548;DHT22;22551;52.206;4.856;2023-09-19T13:42:52;18.60;99.90
36548;DHT22;22551;52.206;4.856;2023-09-19T13:47:55;18.60;99.90
36548;DHT22;22551;52.206;4.856;2023-09-19T13:52:58;18.50;99.90
36548;DHT22;22551;52.206;4.856;2023-09-19T13:58:01;18.50;99.90
36548;DHT22;22551;52.206;4.856;2023-09-19T14:03:05;18.30;99.90
36548;DHT22;22551;52.206;4.856;2023-09-19T14:08:07;18.50;99.90
36548;DHT22;22551;52.206;4.856;2023-09-19T14:13:10;18.40;99.90
36548;DHT22;22551;52.206;4.856;2023-09-19T14:18:15;18.30;99.90
36548;DHT22;22551;52.206;4.856;2023-09-19T14:23:17;18.40;99.90
36548;DHT22;22551;52.206;4.856;2023-09-19T14:28:19;18.30;99.90
36548;DHT22;22551;52.206;4.856;2023-09-19T14:33:22;18.10;99.90
36548;DHT22;22551;52.206;4.856;2023-09-19T14:38:25;17.80;99.90
36548;DHT22;22551;52.206;4.856;2023-09-19T14:43:27;17.70;99.90
36548;DHT22;22551;52.206;4.856;2023-09-19T14:48:32;17.80;99.90
36548;DHT22;22551;52.206;4.856;2023-09-19T14:53:35;17.70;99.90
36548;DHT22;22551;52.206;4.856;2023-09-19T14:58:38;17.70;99.90
36548;DHT22;22551;52.206;4.856;2023-09-19T15:03:42;17.70;99.90
36548;DHT22;22551;52.206;4.856;2023-09-19T15:08:45;17.80;99.90
36548;DHT22;22551;52.206;4.856;2023-09-19T15:13:50;17.90;99.90
36548;DHT22;22551;52.206;4.856;2023-09-19T15:18:54;17.90;99.90
36548;DHT22;22551;52.206;4.856;2023-09-19T15:23:57;17.90;99.90
36548;DHT22;22551;52.206;4.856;2023-09-19T15:28:59;17.90;99.90
36548;DHT22;22551;52.206;4.856;2023-09-19T15:34:02;17.70;99.90
36548;DHT22;22551;52.206;4.856;2023-09-19T15:39:07;17.80;99.90
36548;DHT22;22551;52.206;4.856;2023-09-19T15:44:12;17.80;99.90
36548;DHT22;22551;52.206;4.856;2023-09-19T15:49:17;17.90;99.90
36548;DHT22;22551;52.206;4.856;2023-09-19T15:54:20;18.00;99.90
36548;DHT22;22551;52.206;4.856;2023-09-19T15:59:22;17.90;99.90
36548;DHT22;22551;52.206;4.856;2023-09-19T16:04:26;17.60;99.90
36548;DHT22;22551;52.206;4.856;2023-09-19T16:09:28;17.40;99.90
36548;DHT22;22551;52.206;4.856;2023-09-19T16:14:30;17.30;99.90
36548;DHT22;22551;52.206;4.856;2023-09-19T16:19:33;17.20;99.90
36548;DHT22;22551;52.206;4.856;2023-09-19T16:24:36;17.10;99.90
36548;DHT22;22551;52.206;4.856;2023-09-19T16:29:38;17.10;99.90
36548;DHT22;22551;52.206;4.856;2023-09-19T16:34:41;17.10;99.90
36548;DHT22;22551;52.206;4.856;2023-09-19T16:39:44;17.00;99.90
36548;DHT22;22551;52.206;4.856;2023-09-19T16:44:46;17.00;99.90
36548;DHT22;22551;52.206;4.856;2023-09-19T16:49:50;17.00;99.90
36548;DHT22;22551;52.206;4.856;2023-09-19T16:54:53;17.00;99.90
36548;DHT22;22551;52.206;4.856;2023-09-19T16:59:55;16.90;99.90
36548;DHT22;22551;52.206;4.856;2023-09-19T17:04:59;17.00;99.90
36548;DHT22;22551;52.206;4.856;2023-09-19T17:10:01;16.90;99.90
36548;DHT22;22551;52.206;4.856;2023-09-19T17:15:04;16.90;99.90
36548;DHT22;22551;52.206;4.856;2023-09-19T17:20:09;16.90;99.90
36548;DHT22;22551;52.206;4.856;2023-09-19T17:25:12;16.90;99.90
36548;DHT22;22551;52.206;4.856;2023-09-19T17:30:15;16.80;99.90
36548;DHT22;22551;52.206;4.856;2023-09-19T17:35:19;16.70;99.90
36548;DHT22;22551;52.206;4.856;2023-09-19T17:40:21;16.60;99.90
36548;DHT22;22551;52.206;4.856;2023-09-19T17:45:23;16.60;99.90
36548;DHT22;22551;52.206;4.856;2023-09-19T17:50:27;16.50;99.90
36548;DHT22;22551;52.206;4.856;2023-09-19T17:55:29;16.50;99.90
36548;DHT22;22551;52.206;4.856;2023-09-19T18:00:32;16.40;99.90
36548;DHT22;22551;52.206;4.856;2023-09-19T18:05:43;16.40;99.90
36548;DHT22;22551;52.206;4.856;2023-09-19T18:10:45;16.40;99.90
36548;DHT22;22551;52.206;4.856;2023-09-19T18:15:48;16.40;99.90
36548;DHT22;22551;52.206;4.856;2023-09-19T18:20:52;16.40;99.90
36548;DHT22;22551;52.206;4.856;2023-09-19T18:25:55;16.40;99.90
36548;DHT22;22551;52.206;4.856;2023-09-19T18:30:58;16.40;99.90
36548;DHT22;22551;52.206;4.856;2023-09-19T18:36:02;16.50;99.90
36548;DHT22;22551;52.206;4.856;2023-09-19T18:41:07;16.40;99.90
36548;DHT22;22551;52.206;4.856;2023-09-19T18:46:10;16.40;99.90
36548;DHT22;22551;52.206;4.856;2023-09-19T18:51:14;16.40;99.90
36548;DHT22;22551;52.206;4.856;2023-09-19T18:56:19;16.50;99.90
36548;DHT22;22551;52.206;4.856;2023-09-19T19:01:21;16.50;99.90
36548;DHT22;22551;52.206;4.856;2023-09-19T19:06:24;16.50;99.90
36548;DHT22;22551;52.206;4.856;2023-09-19T19:11:26;16.50;99.90
36548;DHT22;22551;52.206;4.856;2023-09-19T19:16:30;16.40;99.90
36548;DHT22;22551;52.206;4.856;2023-09-19T19:21:34;16.40;99.90
36548;DHT22;22551;52.206;4.856;2023-09-19T19:26:36;16.40;99.90
36548;DHT22;22551;52.206;4.856;2023-09-19T19:31:38;16.50;99.90
36548;DHT22;22551;52.206;4.856;2023-09-19T19:36:42;16.50;99.90
36548;DHT22;22551;52.206;4.856;2023-09-19T19:41:45;16.60;99.90
36548;DHT22;22551;52.206;4.856;2023-09-19T19:46:47;16.60;99.90
36548;DHT22;22551;52.206;4.856;2023-09-19T19:51:52;16.60;99.90
36548;DHT22;22551;52.206;4.856;2023-09-19T19:56:55;16.60;99.90
36548;DHT22;22551;52.206;4.856;2023-09-19T20:01:59;16.60;99.90
36548;DHT22;22551;52.206;4.856;2023-09-19T20:07:05;16.60;99.90
36548;DHT22;22551;52.206;4.856;2023-09-19T20:12:07;16.70;99.90
36548;DHT22;22551;52.206;4.856;2023-09-19T20:17:10;16.70;99.90
36548;DHT22;22551;52.206;4.856;2023-09-19T20:22:14;16.70;99.90
36548;DHT22;22551;52.206;4.856;2023-09-19T20:27:16;16.70;99.90
36548;DHT22;22551;52.206;4.856;2023-09-19T20:32:19;16.70;99.90
36548;DHT22;22551;52.206;4.856;2023-09-19T20:37:22;16.80;99.90
36548;DHT22;22551;52.206;4.856;2023-09-19T20:42:24;16.80;99.90
36548;DHT22;22551;52.206;4.856;2023-09-19T20:47:26;16.80;99.90
36548;DHT22;22551;52.206;4.856;2023-09-19T20:52:31;16.80;99.90
36548;DHT22;22551;52.206;4.856;2023-09-19T20:57:35;16.80;99.90
36548;DHT22;22551;52.206;4.856;2023-09-19T21:02:38;16.80;99.90
36548;DHT22;22551;52.206;4.856;2023-09-19T21:07:42;16.80;99.90
36548;DHT22;22551;52.206;4.856;2023-09-19T21:12:44;16.90;99.90
36548;DHT22;22551;52.206;4.856;2023-09-19T21:17:48;16.90;99.90
36548;DHT22;22551;52.206;4.856;2023-09-19T21:22:52;17.00;99.90
36548;DHT22;22551;52.206;4.856;2023-09-19T21:27:57;17.00;99.90
36548;DHT22;22551;52.206;4.856;2023-09-19T21:33:01;17.00;99.90
36548;DHT22;22551;52.206;4.856;2023-09-19T21:38:04;17.00;99.90
36548;DHT22;22551;52.206;4.856;2023-09-19T21:43:07;17.00;99.90
36548;DHT22;22551;52.206;4.856;2023-09-19T21:48:10;17.00;99.90
36548;DHT22;22551;52.206;4.856;2023-09-19T21:53:14;17.00;99.90
36548;DHT22;22551;52.206;4.856;2023-09-19T21:58:17;17.00;99.90
36548;DHT22;22551;52.206;4.856;2023-09-19T22:03:19;17.00;99.90
36548;DHT22;22551;52.206;4.856;2023-09-19T22:08:22;17.00;99.90
36548;DHT22;22551;52.206;4.856;2023-09-19T22:13:25;17.00;99.90
36548;DHT22;22551;52.206;4.856;2023-09-19T22:18:30;16.90;99.90
36548;DHT22;22551;52.206;4.856;2023-09-19T22:23:34;17.00;99.90
36548;DHT22;22551;52.206;4.856;2023-09-19T22:28:42;16.90;99.90
36548;DHT22;22551;52.206;4.856;2023-09-19T22:33:44;17.00;99.90
36548;DHT22;22551;52.206;4.856;2023-09-19T22:38:52;17.10;99.90
36548;DHT22;22551;52.206;4.856;2023-09-19T22:43:54;17.10;99.90
36548;DHT22;22551;52.206;4.856;2023-09-19T22:48:57;17.10;99.90
36548;DHT22;22551;52.206;4.856;2023-09-19T22:54:02;17.10;99.90
36548;DHT22;22551;52.206;4.856;2023-09-19T22:59:09;17.20;99.90
36548;DHT22;22551;52.206;4.856;2023-09-19T23:04:12;17.20;99.90
36548;DHT22;22551;52.206;4.856;2023-09-19T23:09:20;17.20;99.90
36548;DHT22;22551;52.206;4.856;2023-09-19T23:14:24;17.20;99.90
36548;DHT22;22551;52.206;4.856;2023-09-19T23:19:33;17.30;99.90
36548;DHT22;22551;52.206;4.856;2023-09-19T23:24:37;17.30;99.90
36548;DHT22;22551;52.206;4.856;2023-09-19T23:29:41;17.40;99.90
36548;DHT22;22551;52.206;4.856;2023-09-19T23:34:43;17.30;99.90
36548;DHT22;22551;52.206;4.856;2023-09-19T23:39:50;17.40;99.90
36548;DHT22;22551;52.206;4.856;2023-09-19T23:44:52;17.40;99.90
36548;DHT22;22551;52.206;4.856;2023-09-19T23:49:55;17.40;99.90
36548;DHT22;22551;52.206;4.856;2023-09-19T23:54:59;17.40;99.90
